Impacts TAF Board INFO
FOR SITUATIONAL AWARENESS. NOT TO BE USED FOR FLIGHT PLANNING PURPOSES.
IDs:

KBWI - Baltimore-Washington, MD, US

Issued at 2320 UTC 22 Jan 2018
Updated at 0021 UTC 23 Jan 2018
Potential Impact None Slight Moderate High
Time2354Z 23/01Z 23/02Z 23/03Z 23/04Z 23/05Z 23/06Z 23/07Z 23/08Z 23/09Z 23/10Z 23/11Z 23/12Z 23/13Z>>
Type OBS PRVL PRVL PRVL PRVL PRVL PRVL PRVL PRVL PRVL PRVL PRVL PRVL PRVL
VIS 10 >6 >6 >6 >6 >6 >6 >6 >6 2 2 2 2 2
CIG 230 200 200 200 200 200 200 25 25 8 8 8 8 8
Cover OVC OVC OVC OVC OVC OVC OVC OVC OVC OVC OVC OVC OVC OVC
FltCat VFR VFR VFR VFR VFR VFR VFR MVFR MVFR IFR IFR IFR IFR IFR
WX -- -- -- -- -- -- -- VCSH VCSH -SHRA BR -SHRA BR -SHRA BR -SHRA BR -SHRA BR
WDir 130 140 140 140 140 140 140 150 150 160 160 160 160 160
WSpd 5 8 8 8 8 8 8 10 10 12 12 12 12 12
WGst -- -- -- -- -- -- -- -- -- 20 20 20 20 20

Raw TAF
KBWI 222320Z 2300/2406 14008KT P6SM SCT100 OVC200
  FM230700 15010KT P6SM VCSH BKN025 OVC050 WS020/20045KT
  FM230900 16012G20KT 2SM -SHRA BR BKN008 OVC015 WS020/20050KT
  FM231500 20012G24KT P6SM BKN025 OVC050
  FM231800 26015G25KT P6SM SCT050
  FM240100 28008G16KT P6SM FEW250


Raw METAR
KBWI 222354Z 13005KT 10SM OVC230 12/06 A3003 RMK AO2 SLP168 T01170061 10167 20117 52000
KBWI 222254Z 15006KT 10SM BKN250 13/06 A3002 RMK AO2 SLP167 T01280056
KBWI 222154Z 13007KT 10SM BKN250 15/06 A3002 RMK AO2 SLP168 T01500056

METAR Board
Radar Display
Forecast Discussion

FOR SITUATIONAL AWARENESS. NOT TO BE USED FOR FLIGHT PLANNING PURPOSES.